createdAt,value
2022-09-13T00:00:50.192Z,89.04
2022-09-13T00:03:19.501Z,89.06
2022-09-13T00:05:48.003Z,89.55
2022-09-13T00:08:16.334Z,90.48
2022-09-13T00:10:46.063Z,91.19
2022-09-13T00:13:16.215Z,91.53
2022-09-13T00:15:45.343Z,91.58
2022-09-13T00:18:15.064Z,91.52
2022-09-13T00:20:44.254Z,92.00
2022-09-13T00:23:12.216Z,91.78
2022-09-13T00:25:40.675Z,92.43
2022-09-13T00:28:08.530Z,92.69
2022-09-13T00:30:36.396Z,93.00
2022-09-13T00:33:04.695Z,92.70
2022-09-13T00:35:32.833Z,93.20
2022-09-13T00:38:03.243Z,93.47
2022-09-13T00:40:31.180Z,93.42
2022-09-13T00:42:59.037Z,93.17
2022-09-13T00:45:26.826Z,93.42
2022-09-13T00:47:58.188Z,93.41
2022-09-13T00:50:32.504Z,93.69
2022-09-13T00:53:06.722Z,94.00
2022-09-13T00:55:39.879Z,93.92
2022-09-13T00:58:11.868Z,94.28
2022-09-13T01:00:41.864Z,94.24
2022-09-13T01:03:13.201Z,93.71
2022-09-13T01:05:45.088Z,93.47
2022-09-13T01:08:22.719Z,93.38
2022-09-13T01:10:53.021Z,93.89
2022-09-13T01:13:24.187Z,94.18
2022-09-13T01:15:53.058Z,94.00
2022-09-13T01:18:21.230Z,93.99
2022-09-13T01:21:13.631Z,93.77
2022-09-13T01:24:19.143Z,93.85
2022-09-13T01:27:16.900Z,94.02
2022-09-13T01:30:09.677Z,93.90
2022-09-13T01:32:57.890Z,93.23
2022-09-13T01:35:35.915Z,92.32
2022-09-13T01:38:15.660Z,92.93
2022-09-13T01:41:04.711Z,92.58
2022-09-13T01:43:43.074Z,92.83
2022-09-13T01:46:17.674Z,93.22
2022-09-13T01:48:58.684Z,93.30
2022-09-13T01:51:32.852Z,93.52
2022-09-13T01:54:13.512Z,93.41
2022-09-13T01:57:01.995Z,93.84
2022-09-13T01:59:39.473Z,94.28
2022-09-13T02:02:14.712Z,94.62
2022-09-13T02:04:47.502Z,94.89
2022-09-13T02:07:23.364Z,94.15
2022-09-13T02:09:56.656Z,94.14
2022-09-13T02:12:27.035Z,94.46
2022-09-13T02:14:59.753Z,94.18
2022-09-13T02:17:33.654Z,94.16
2022-09-13T02:20:04.824Z,93.92
2022-09-13T02:22:36.839Z,94.15
2022-09-13T02:25:10.625Z,94.35
2022-09-13T02:27:42.868Z,94.70
2022-09-13T02:30:13.538Z,94.24
2022-09-13T02:32:47.042Z,94.68
2022-09-13T02:35:20.128Z,94.32
2022-09-13T02:37:53.281Z,94.75
2022-09-13T02:40:27.340Z,94.67
2022-09-13T02:43:00.465Z,94.86
2022-09-13T02:45:34.657Z,94.76
2022-09-13T02:48:10.458Z,94.76
2022-09-13T02:50:48.327Z,94.64
2022-09-13T02:53:26.160Z,94.50
2022-09-13T02:56:01.362Z,94.41
2022-09-13T02:58:35.375Z,93.52
2022-09-13T03:01:03.283Z,93.52
2022-09-13T03:03:32.565Z,93.17
2022-09-13T03:06:01.882Z,93.05
2022-09-13T03:08:30.847Z,92.73
2022-09-13T03:11:09.735Z,92.79
2022-09-13T03:13:55.477Z,93.03
2022-09-13T03:16:38.471Z,92.56
2022-09-13T03:19:22.356Z,92.31
2022-09-13T03:22:08.037Z,91.88
2022-09-13T03:24:47.194Z,92.15
2022-09-13T03:27:24.621Z,92.30
2022-09-13T03:29:59.932Z,91.88
2022-09-13T03:32:39.282Z,92.00
2022-09-13T03:35:19.689Z,91.80
2022-09-13T03:37:55.782Z,91.84
2022-09-13T03:40:32.507Z,92.19
2022-09-13T03:43:05.881Z,92.22
2022-09-13T03:45:39.945Z,92.17
2022-09-13T03:48:10.421Z,92.23
2022-09-13T03:50:40.700Z,92.33
2022-09-13T03:53:11.458Z,92.49
2022-09-13T03:55:42.125Z,93.18
2022-09-13T03:58:13.087Z,93.05
2022-09-13T04:00:41.168Z,92.68
2022-09-13T04:03:09.316Z,93.10
2022-09-13T04:05:37.334Z,93.31
2022-09-13T04:08:07.978Z,93.44
2022-09-13T04:10:37.681Z,93.36
2022-09-13T04:13:06.163Z,93.04
2022-09-13T04:15:34.077Z,93.41
2022-09-13T04:18:02.041Z,93.20
2022-09-13T04:20:30.011Z,93.31
2022-09-13T04:22:58.689Z,93.31
2022-09-13T04:25:27.850Z,93.47
2022-09-13T04:27:56.344Z,93.71
2022-09-13T04:30:24.117Z,93.43
2022-09-13T04:32:51.982Z,93.36
2022-09-13T04:35:19.995Z,93.70
2022-09-13T04:37:47.769Z,93.95
2022-09-13T04:40:15.859Z,93.44
2022-09-13T04:42:46.390Z,93.64
2022-09-13T04:45:14.128Z,93.51
2022-09-13T04:47:41.998Z,93.51
2022-09-13T04:50:10.414Z,93.67
2022-09-13T04:52:38.230Z,93.74
2022-09-13T04:55:07.409Z,93.26
2022-09-13T04:57:35.195Z,93.22
2022-09-13T05:00:06.059Z,93.34
2022-09-13T05:02:34.151Z,93.04
2022-09-13T05:05:01.968Z,92.63
2022-09-13T05:07:29.751Z,91.66
2022-09-13T05:09:57.587Z,92.01
2022-09-13T05:12:25.464Z,92.16
2022-09-13T05:14:53.438Z,91.63
2022-09-13T05:17:22.537Z,91.23
2022-09-13T05:19:50.334Z,91.94
2022-09-13T05:22:18.091Z,91.75
2022-09-13T05:24:45.819Z,91.87
2022-09-13T05:27:13.560Z,91.36
2022-09-13T05:29:41.466Z,91.67
2022-09-13T05:32:09.286Z,91.04
2022-09-13T05:34:38.754Z,91.14
2022-09-13T05:37:06.515Z,90.67
2022-09-13T05:39:53.983Z,90.29
2022-09-13T05:42:22.174Z,89.16
2022-09-13T05:44:49.993Z,89.56
2022-09-13T05:47:17.811Z,88.80
2022-09-13T05:50:08.999Z,88.74
2022-09-13T05:52:34.870Z,88.59
2022-09-13T05:55:02.758Z,87.72
2022-09-13T05:57:31.916Z,87.19
2022-09-13T05:59:59.967Z,87.22
2022-09-13T06:02:27.920Z,85.93
2022-09-13T06:04:57.054Z,85.69
2022-09-13T06:07:24.810Z,85.92
2022-09-13T06:09:53.382Z,86.47
2022-09-13T06:12:21.365Z,86.20
2022-09-13T06:14:49.617Z,86.77
2022-09-13T06:17:17.950Z,86.81
2022-09-13T06:19:45.795Z,87.07
2022-09-13T06:22:15.215Z,86.17
2022-09-13T06:24:43.091Z,86.11
2022-09-13T06:27:11.235Z,86.16
2022-09-13T06:29:39.140Z,86.49
2022-09-13T06:32:08.221Z,87.09
2022-09-13T06:34:36.099Z,86.73
2022-09-13T06:37:04.050Z,85.89
2022-09-13T06:39:34.261Z,85.74
2022-09-13T06:42:02.076Z,84.53
2022-09-13T06:44:30.902Z,83.57
2022-09-13T06:46:58.928Z,82.93
2022-09-13T06:49:29.114Z,82.27
2022-09-13T06:51:56.884Z,83.21
2022-09-13T06:54:25.669Z,83.46
2022-09-13T06:56:56.167Z,80.50
2022-09-13T06:59:24.190Z,80.55
2022-09-13T07:01:52.585Z,81.06
2022-09-13T07:04:20.493Z,82.07
2022-09-13T07:06:49.811Z,81.95
2022-09-13T07:09:19.637Z,81.26
2022-09-13T07:11:48.072Z,81.64
2022-09-13T07:14:18.742Z,81.15
2022-09-13T07:16:47.170Z,81.35
2022-09-13T07:19:16.798Z,81.23
2022-09-13T07:21:45.194Z,80.64
2022-09-13T07:24:13.658Z,80.47
2022-09-13T07:26:41.456Z,80.23
2022-09-13T07:29:13.567Z,79.62
2022-09-13T07:31:44.881Z,79.99
2022-09-13T07:34:14.699Z,79.92
2022-09-13T07:36:43.085Z,78.92
2022-09-13T07:39:14.909Z,79.17
2022-09-13T07:41:44.751Z,77.79
2022-09-13T07:44:13.661Z,78.19
2022-09-13T07:46:43.689Z,78.39
2022-09-13T07:49:13.530Z,78.48
2022-09-13T07:51:43.294Z,78.61
2022-09-13T07:54:13.714Z,78.16
2022-09-13T07:56:42.106Z,77.59
2022-09-13T07:59:14.540Z,75.85
2022-09-13T08:01:45.507Z,75.13
2022-09-13T08:04:17.151Z,73.57
2022-09-13T08:06:46.740Z,73.24
2022-09-13T08:09:19.049Z,72.74
2022-09-13T08:11:48.898Z,73.04
2022-09-13T08:14:18.638Z,74.17
2022-09-13T08:16:48.108Z,72.94
2022-09-13T08:19:18.976Z,72.22
2022-09-13T08:21:47.559Z,72.45
2022-09-13T08:24:17.699Z,72.00
2022-09-13T08:26:46.406Z,72.48
2022-09-13T08:29:15.173Z,72.91
2022-09-13T08:31:43.738Z,71.18
2022-09-13T08:34:15.707Z,71.60
2022-09-13T08:36:44.582Z,70.53
2022-09-13T08:39:13.709Z,70.58
2022-09-13T08:42:09.855Z,70.74
2022-09-13T08:44:42.778Z,69.56
2022-09-13T08:47:39.557Z,66.07
2022-09-13T08:50:14.076Z,67.75
2022-09-13T08:52:53.060Z,67.31
2022-09-13T08:55:28.631Z,66.69
2022-09-13T08:58:02.324Z,66.51
2022-09-13T09:00:35.780Z,66.11
2022-09-13T09:03:15.372Z,66.50
2022-09-13T09:05:48.977Z,67.24
2022-09-13T09:08:32.206Z,66.08
2022-09-13T09:11:04.675Z,67.57
2022-09-13T09:13:36.223Z,66.97
2022-09-13T09:16:08.308Z,68.00
2022-09-13T09:18:40.124Z,67.88
2022-09-13T09:21:16.665Z,69.19
2022-09-13T09:23:51.679Z,70.46
2022-09-13T09:26:21.280Z,72.75
2022-09-13T09:28:55.082Z,73.87
2022-09-13T09:31:34.579Z,75.87
2022-09-13T09:34:12.226Z,76.00
2022-09-13T09:36:46.112Z,77.90
2022-09-13T09:39:16.409Z,77.65
2022-09-13T09:41:45.372Z,77.89
2022-09-13T09:44:20.320Z,78.83
2022-09-13T09:46:52.711Z,77.45
2022-09-13T09:49:44.065Z,76.64
2022-09-13T09:52:17.386Z,77.41
2022-09-13T09:54:46.571Z,76.64
2022-09-13T09:57:14.904Z,77.45
2022-09-13T09:59:43.103Z,76.84
2022-09-13T10:02:18.688Z,75.30
2022-09-13T10:04:57.534Z,75.65
2022-09-13T10:07:34.474Z,76.10
2022-09-13T10:10:06.468Z,76.05
2022-09-13T10:12:36.769Z,76.98
2022-09-13T10:15:15.450Z,76.56
2022-09-13T10:17:43.673Z,77.30
2022-09-13T10:20:26.719Z,77.95
2022-09-13T10:23:20.475Z,75.98
2022-09-13T10:25:59.687Z,76.17
2022-09-13T10:28:28.156Z,76.16
2022-09-13T10:30:59.896Z,74.36
2022-09-13T10:33:32.105Z,74.90
2022-09-13T10:36:03.875Z,73.91
2022-09-13T10:38:36.850Z,74.22
2022-09-13T10:41:09.423Z,74.38
2022-09-13T10:43:38.609Z,73.43
2022-09-13T10:46:12.568Z,73.54
2022-09-13T10:48:47.132Z,71.32
2022-09-13T10:51:40.281Z,71.99
2022-09-13T10:54:18.511Z,72.44
2022-09-13T10:56:46.473Z,71.39
2022-09-13T10:59:22.571Z,71.65
2022-09-13T11:02:27.531Z,71.14
2022-09-13T11:05:10.038Z,72.89
2022-09-13T11:07:57.306Z,71.57
2022-09-13T11:10:33.787Z,70.54
2022-09-13T11:13:15.607Z,71.72
2022-09-13T11:15:54.406Z,70.82
2022-09-13T11:18:56.668Z,71.59
2022-09-13T11:21:39.280Z,72.12
2022-09-13T11:24:23.574Z,70.70
2022-09-13T11:27:04.475Z,70.69
2022-09-13T11:30:01.133Z,69.57
2022-09-13T11:32:41.196Z,69.17
2022-09-13T11:35:35.793Z,69.17
2022-09-13T11:38:19.441Z,68.33
2022-09-13T11:40:55.569Z,68.42
2022-09-13T11:43:40.527Z,70.48
2022-09-13T11:46:15.324Z,68.64
2022-09-13T11:48:59.483Z,67.70
2022-09-13T11:51:35.238Z,66.83
2022-09-13T11:54:14.449Z,65.13
2022-09-13T11:56:45.688Z,64.25
2022-09-13T11:59:25.168Z,66.83
2022-09-13T12:01:58.811Z,66.93
2022-09-13T12:04:33.938Z,66.25
2022-09-13T12:07:06.024Z,69.50
2022-09-13T12:09:38.213Z,66.65
2022-09-13T12:12:08.519Z,66.44
2022-09-13T12:14:46.475Z,67.53
2022-09-13T12:17:26.047Z,66.27
2022-09-13T12:19:57.222Z,66.71
2022-09-13T12:22:30.851Z,65.95
2022-09-13T12:25:03.730Z,66.35
2022-09-13T12:27:40.347Z,65.20
2022-09-13T12:30:23.007Z,64.43
2022-09-13T12:32:58.808Z,65.41
2022-09-13T12:35:31.401Z,66.16
2022-09-13T12:38:29.445Z,65.53
2022-09-13T12:41:11.357Z,64.56
2022-09-13T12:43:56.733Z,64.25
2022-09-13T12:46:46.581Z,63.72
2022-09-13T12:49:39.508Z,63.30
2022-09-13T12:52:34.295Z,61.95
2022-09-13T12:55:46.236Z,63.43
2022-09-13T12:58:40.197Z,62.82
2022-09-13T13:01:15.715Z,63.41
2022-09-13T13:03:52.118Z,61.23
2022-09-13T13:06:27.739Z,63.24
2022-09-13T13:08:58.010Z,62.61
2022-09-13T13:11:28.464Z,62.21
2022-09-13T13:13:58.932Z,63.00
2022-09-13T13:16:31.255Z,63.04
2022-09-13T13:19:02.026Z,64.25
2022-09-13T13:21:33.854Z,62.62
2022-09-13T13:24:39.483Z,62.92
2022-09-13T13:27:54.930Z,60.79
2022-09-13T13:30:42.557Z,61.62
2022-09-13T13:33:17.685Z,62.15
2022-09-13T13:35:47.007Z,61.82
2022-09-13T13:38:38.533Z,59.65
2022-09-13T13:41:12.747Z,59.79
2022-09-13T13:43:40.895Z,61.10
2022-09-13T13:46:30.527Z,63.63
2022-09-13T13:49:46.144Z,62.35
2022-09-13T13:52:41.075Z,63.16
2022-09-13T13:55:38.674Z,62.86
2022-09-13T13:58:28.517Z,63.22
2022-09-13T14:00:59.881Z,62.14
2022-09-13T14:03:42.928Z,61.91
2022-09-13T14:06:15.901Z,61.82
2022-09-13T14:11:42.582Z,60.51
2022-09-13T14:14:29.956Z,61.87
2022-09-13T14:17:19.247Z,62.56
2022-09-13T14:19:50.194Z,62.82
2022-09-13T14:22:21.241Z,62.90
2022-09-13T14:24:52.492Z,63.83
2022-09-13T14:27:22.759Z,64.16
2022-09-13T14:29:53.026Z,64.93
2022-09-13T14:32:23.425Z,65.86
2022-09-13T14:34:55.375Z,66.59
2022-09-13T14:37:30.021Z,66.01
2022-09-13T14:40:02.348Z,66.92
2022-09-13T14:42:40.001Z,70.06
2022-09-13T14:45:14.062Z,71.78
2022-09-13T14:47:51.500Z,76.36
2022-09-13T14:50:23.440Z,75.52
2022-09-13T14:52:56.043Z,75.69
2022-09-13T14:55:30.148Z,76.79
2022-09-13T14:58:04.271Z,78.82
2022-09-13T15:00:35.142Z,78.06
2022-09-13T15:03:15.872Z,78.39
2022-09-13T15:05:53.086Z,79.35
2022-09-13T15:08:40.726Z,79.27
2022-09-13T15:11:17.579Z,79.76
2022-09-13T15:13:45.686Z,80.24
2022-09-13T15:16:29.671Z,81.69
2022-09-13T15:19:17.342Z,77.42
2022-09-13T15:21:46.603Z,78.07
2022-09-13T15:24:32.319Z,79.31
2022-09-13T15:27:07.961Z,77.09
2022-09-13T15:29:37.581Z,78.97
2022-09-13T15:32:06.720Z,78.13
2022-09-13T15:34:34.933Z,77.37
2022-09-13T15:37:09.326Z,78.87
2022-09-13T15:39:45.200Z,77.70
2022-09-13T15:42:14.702Z,77.72
2022-09-13T15:44:42.738Z,76.30
2022-09-13T15:47:12.715Z,77.04
2022-09-13T15:49:41.931Z,77.03
2022-09-13T15:52:11.254Z,76.84
2022-09-13T15:54:41.246Z,76.69
2022-09-13T15:57:34.390Z,77.24
2022-09-13T16:00:06.544Z,76.84
2022-09-13T16:02:35.748Z,76.66
2022-09-13T16:05:03.623Z,75.88
2022-09-13T16:07:31.677Z,77.47
2022-09-13T16:09:59.644Z,78.60
2022-09-13T16:12:29.057Z,75.69
2022-09-13T16:14:56.902Z,76.78
2022-09-13T16:17:26.526Z,74.43
2022-09-13T16:19:54.756Z,74.82
2022-09-13T16:22:23.346Z,75.83
2022-09-13T16:24:51.588Z,77.47
2022-09-13T16:27:21.102Z,77.86
2022-09-13T16:30:03.621Z,77.42
2022-09-13T16:32:31.557Z,77.04
2022-09-13T16:34:59.674Z,77.15
2022-09-13T16:37:27.800Z,77.10
2022-09-13T16:39:57.622Z,74.75
2022-09-13T16:42:25.993Z,75.63
2022-09-13T16:44:55.225Z,76.83
2022-09-13T16:47:23.318Z,78.54
2022-09-13T16:49:51.119Z,80.28
2022-09-13T16:52:18.883Z,81.65
2022-09-13T16:54:49.449Z,82.70
2022-09-13T16:57:17.287Z,83.08
2022-09-13T16:59:46.737Z,79.66
2022-09-13T17:02:16.585Z,81.06
2022-09-13T17:04:44.831Z,82.62
2022-09-13T17:07:13.296Z,83.49
2022-09-13T17:09:41.357Z,81.77
2022-09-13T17:12:09.853Z,81.15
2022-09-13T17:14:38.917Z,83.31
2022-09-13T17:17:07.060Z,85.87
2022-09-13T17:19:36.933Z,85.78
2022-09-13T17:22:08.102Z,87.02
2022-09-13T17:24:37.145Z,87.15
2022-09-13T17:27:06.706Z,88.27
2022-09-13T17:29:35.438Z,88.48
2022-09-13T17:32:06.075Z,88.88
2022-09-13T17:34:34.955Z,89.28
2022-09-13T17:37:06.711Z,89.78
2022-09-13T17:39:34.764Z,90.27
2022-09-13T17:42:02.580Z,91.38
2022-09-13T17:44:30.391Z,90.79
2022-09-13T17:46:58.365Z,91.50
2022-09-13T17:49:27.417Z,91.55
2022-09-13T17:51:55.931Z,91.83
2022-09-13T17:54:26.047Z,92.29
2022-09-13T17:56:54.094Z,92.81
2022-09-13T17:59:23.089Z,92.57
2022-09-13T18:01:52.717Z,92.73
2022-09-13T18:04:22.323Z,92.76
2022-09-13T18:06:51.862Z,92.79
2022-09-13T18:09:19.674Z,93.40
2022-09-13T18:11:48.809Z,93.32
2022-09-13T18:14:18.952Z,92.48
2022-09-13T18:16:47.179Z,93.07
2022-09-13T18:19:15.525Z,93.76
2022-09-13T18:21:43.351Z,94.30
2022-09-13T18:24:11.214Z,93.89
2022-09-13T18:26:38.969Z,94.30
2022-09-13T18:29:12.489Z,95.07
2022-09-13T18:31:41.828Z,95.94
2022-09-13T18:34:12.705Z,96.43
2022-09-13T18:36:41.820Z,95.58
2022-09-13T18:39:15.811Z,95.81
2022-09-13T18:41:45.155Z,97.15
2022-09-13T18:44:15.516Z,97.57
2022-09-13T18:46:44.353Z,97.90
2022-09-13T18:49:12.587Z,97.99
2022-09-13T18:51:42.601Z,98.60
2022-09-13T18:54:13.211Z,98.71
2022-09-13T18:56:41.379Z,98.27
2022-09-13T18:59:11.024Z,98.65
2022-09-13T19:01:41.738Z,98.60
2022-09-13T19:04:12.721Z,98.98
2022-09-13T19:06:42.718Z,98.91
2022-09-13T19:09:11.797Z,98.57
2022-09-13T19:11:46.874Z,98.34
2022-09-13T19:14:16.561Z,98.08
2022-09-13T19:16:45.969Z,97.97
2022-09-13T19:19:23.211Z,98.04
2022-09-13T19:21:54.398Z,98.31
2022-09-13T19:24:22.388Z,98.54
2022-09-13T19:26:52.537Z,99.13
2022-09-13T19:29:22.644Z,99.07
2022-09-13T19:31:53.161Z,99.99
2022-09-13T19:34:23.660Z,100.00
2022-09-13T19:36:57.335Z,100.00
2022-09-13T19:39:29.153Z,100.00
2022-09-13T19:41:58.148Z,100.00
2022-09-13T19:44:26.293Z,100.00
2022-09-13T19:47:23.858Z,100.00
2022-09-13T19:49:44.121Z,100.00
2022-09-13T19:52:11.949Z,100.00
2022-09-13T19:54:39.846Z,100.00
2022-09-13T19:57:09.559Z,100.00
2022-09-13T19:59:37.353Z,100.00
2022-09-13T20:02:06.937Z,100.00
2022-09-13T20:04:36.181Z,100.00
2022-09-13T20:07:04.110Z,100.00
2022-09-13T20:09:31.945Z,100.00
2022-09-13T20:12:00.669Z,100.00
2022-09-13T20:14:28.869Z,100.00
2022-09-13T20:16:56.650Z,100.00
2022-09-13T20:19:46.219Z,100.00
2022-09-13T20:22:13.895Z,100.00
2022-09-13T20:24:41.745Z,100.00
2022-09-13T20:27:09.574Z,100.00
2022-09-13T20:29:37.827Z,100.00
2022-09-13T20:32:05.740Z,100.00
2022-09-13T20:34:35.125Z,100.00
2022-09-13T20:37:02.888Z,100.00
2022-09-13T20:39:30.648Z,100.00
2022-09-13T20:41:59.000Z,100.00
2022-09-13T20:44:26.814Z,100.00
2022-09-13T20:46:55.596Z,100.00
2022-09-13T20:49:23.460Z,100.00
2022-09-13T20:51:53.163Z,100.00
2022-09-13T20:54:20.971Z,100.00
2022-09-13T20:56:49.174Z,100.00
2022-09-13T20:59:16.937Z,100.00
2022-09-13T21:01:45.090Z,100.00
2022-09-13T21:04:13.004Z,100.00
2022-09-13T21:06:57.730Z,100.00
2022-09-13T21:09:27.205Z,100.00
2022-09-13T21:11:55.089Z,100.00
2022-09-13T21:14:23.681Z,100.00
2022-09-13T21:16:51.514Z,100.00
2022-09-13T21:19:19.793Z,100.00
2022-09-13T21:21:48.514Z,100.00
2022-09-13T21:24:16.452Z,100.00
2022-09-13T21:26:45.640Z,100.00
2022-09-13T21:29:13.515Z,100.00
2022-09-13T21:31:42.048Z,100.00
2022-09-13T21:34:15.047Z,100.00
2022-09-13T21:36:43.187Z,100.00
2022-09-13T21:39:11.127Z,100.00
2022-09-13T21:41:39.313Z,100.00
2022-09-13T21:44:08.711Z,100.00
2022-09-13T21:46:38.526Z,100.00
2022-09-13T21:49:08.461Z,100.00
2022-09-13T21:51:37.719Z,100.00
2022-09-13T21:54:08.186Z,100.00
2022-09-13T21:56:38.229Z,100.00
2022-09-13T21:59:09.521Z,100.00
2022-09-13T22:01:39.654Z,100.00
2022-09-13T22:04:08.496Z,100.00
2022-09-13T22:06:37.103Z,100.00
2022-09-13T22:09:07.419Z,100.00
2022-09-13T22:11:38.476Z,100.00
2022-09-13T22:14:09.400Z,100.00
2022-09-13T22:16:38.883Z,100.00
2022-09-13T22:19:09.589Z,100.00
2022-09-13T22:21:40.005Z,100.00
2022-09-13T22:24:09.740Z,100.00
2022-09-13T22:26:39.583Z,100.00
2022-09-13T22:29:09.692Z,100.00
2022-09-13T22:31:40.426Z,100.00
2022-09-13T22:34:11.613Z,100.00
2022-09-13T22:36:39.502Z,100.00
2022-09-13T22:39:07.350Z,100.00
2022-09-13T22:41:36.211Z,100.00
2022-09-13T22:44:04.854Z,100.00
2022-09-13T22:46:35.960Z,100.00
2022-09-13T22:49:05.297Z,100.00
2022-09-13T22:51:33.659Z,100.00
2022-09-13T22:54:06.821Z,100.00
2022-09-13T22:56:36.297Z,100.00
2022-09-13T22:59:07.387Z,100.00
2022-09-13T23:01:36.799Z,100.00
2022-09-13T23:04:05.699Z,100.00
2022-09-13T23:06:34.167Z,100.00
2022-09-13T23:09:05.336Z,100.00
2022-09-13T23:11:35.766Z,100.00
2022-09-13T23:14:09.843Z,100.00
2022-09-13T23:16:40.487Z,100.00
2022-09-13T23:19:08.343Z,100.00
2022-09-13T23:21:38.697Z,100.00
2022-09-13T23:24:08.421Z,100.00
2022-09-13T23:26:36.166Z,100.00
2022-09-13T23:29:05.719Z,100.00
2022-09-13T23:31:35.644Z,100.00
2022-09-13T23:34:06.463Z,100.00
2022-09-13T23:36:36.806Z,100.00
2022-09-13T23:39:07.834Z,100.00
2022-09-13T23:41:36.000Z,100.00
2022-09-13T23:44:04.904Z,100.00
2022-09-13T23:46:32.677Z,100.00
2022-09-13T23:49:00.432Z,100.00
2022-09-13T23:51:29.634Z,100.00
2022-09-13T23:54:00.822Z,100.00
2022-09-13T23:56:31.639Z,100.00
2022-09-13T23:59:00.895Z,100.00
